sensor_id;sensor_type;location;lat;lon;timestamp;P1;durP1;ratioP1;P2;durP2;ratioP2
56824;SDS011;42705;50.326;18.772;2023-02-28T00:05:04;21.20;;;8.40;;
56824;SDS011;42705;50.326;18.772;2023-02-28T00:15:58;31.30;;;11.60;;
56824;SDS011;42705;50.326;18.772;2023-02-28T00:21:21;28.70;;;11.40;;
56824;SDS011;42705;50.326;18.772;2023-02-28T00:26:43;26.80;;;10.00;;
56824;SDS011;42705;50.326;18.772;2023-02-28T00:32:06;25.60;;;11.30;;
56824;SDS011;42705;50.326;18.772;2023-02-28T00:37:28;23.50;;;9.90;;
56824;SDS011;42705;50.326;18.772;2023-02-28T00:42:51;21.10;;;9.80;;
56824;SDS011;42705;50.326;18.772;2023-02-28T00:48:13;25.90;;;10.20;;
56824;SDS011;42705;50.326;18.772;2023-02-28T00:53:35;22.70;;;9.80;;
56824;SDS011;42705;50.326;18.772;2023-02-28T00:58:56;26.80;;;10.90;;
56824;SDS011;42705;50.326;18.772;2023-02-28T01:04:18;28.90;;;11.20;;
56824;SDS011;42705;50.326;18.772;2023-02-28T01:09:40;24.60;;;10.80;;
56824;SDS011;42705;50.326;18.772;2023-02-28T01:15:03;25.40;;;10.50;;
56824;SDS011;42705;50.326;18.772;2023-02-28T01:20:25;24.40;;;11.00;;
56824;SDS011;42705;50.326;18.772;2023-02-28T01:25:47;27.20;;;11.60;;
56824;SDS011;42705;50.326;18.772;2023-02-28T01:31:09;29.50;;;11.90;;
56824;SDS011;42705;50.326;18.772;2023-02-28T01:36:33;28.50;;;12.10;;
56824;SDS011;42705;50.326;18.772;2023-02-28T01:41:55;21.10;;;9.40;;
56824;SDS011;42705;50.326;18.772;2023-02-28T01:47:17;22.30;;;10.30;;
56824;SDS011;42705;50.326;18.772;2023-02-28T01:52:39;24.80;;;9.90;;
56824;SDS011;42705;50.326;18.772;2023-02-28T01:58:02;20.20;;;9.30;;
56824;SDS011;42705;50.326;18.772;2023-02-28T02:03:27;19.30;;;9.50;;
56824;SDS011;42705;50.326;18.772;2023-02-28T02:08:50;19.00;;;9.60;;
56824;SDS011;42705;50.326;18.772;2023-02-28T02:14:27;21.50;;;10.60;;
56824;SDS011;42705;50.326;18.772;2023-02-28T02:25:40;24.40;;;11.40;;
56824;SDS011;42705;50.326;18.772;2023-02-28T02:42:03;22.70;;;9.30;;
56824;SDS011;42705;50.326;18.772;2023-02-28T02:47:33;25.40;;;11.50;;
56824;SDS011;42705;50.326;18.772;2023-02-28T02:52:59;27.10;;;11.00;;
56824;SDS011;42705;50.326;18.772;2023-02-28T02:58:25;25.80;;;10.60;;
56824;SDS011;42705;50.326;18.772;2023-02-28T03:03:51;20.50;;;9.30;;
56824;SDS011;42705;50.326;18.772;2023-02-28T03:09:13;27.60;;;11.50;;
56824;SDS011;42705;50.326;18.772;2023-02-28T03:14:40;27.50;;;11.20;;
56824;SDS011;42705;50.326;18.772;2023-02-28T03:26:22;24.70;;;12.50;;
56824;SDS011;42705;50.326;18.772;2023-02-28T03:31:54;30.30;;;14.20;;
56824;SDS011;42705;50.326;18.772;2023-02-28T03:37:24;36.90;;;14.90;;
56824;SDS011;42705;50.326;18.772;2023-02-28T03:42:49;36.70;;;16.10;;
56824;SDS011;42705;50.326;18.772;2023-02-28T03:48:23;35.70;;;15.20;;
56824;SDS011;42705;50.326;18.772;2023-02-28T03:53:53;38.50;;;15.60;;
56824;SDS011;42705;50.326;18.772;2023-02-28T03:59:21;30.70;;;12.50;;
56824;SDS011;42705;50.326;18.772;2023-02-28T04:04:49;34.80;;;13.70;;
56824;SDS011;42705;50.326;18.772;2023-02-28T04:10:12;39.20;;;14.90;;
56824;SDS011;42705;50.326;18.772;2023-02-28T04:15:34;37.60;;;16.20;;
56824;SDS011;42705;50.326;18.772;2023-02-28T04:20:59;34.10;;;15.40;;
56824;SDS011;42705;50.326;18.772;2023-02-28T04:26:21;32.50;;;14.30;;
56824;SDS011;42705;50.326;18.772;2023-02-28T04:31:43;32.50;;;11.70;;
56824;SDS011;42705;50.326;18.772;2023-02-28T04:37:05;26.60;;;13.20;;
56824;SDS011;42705;50.326;18.772;2023-02-28T04:42:27;29.70;;;14.50;;
56824;SDS011;42705;50.326;18.772;2023-02-28T04:47:56;32.00;;;14.10;;
56824;SDS011;42705;50.326;18.772;2023-02-28T04:53:18;38.50;;;15.90;;
56824;SDS011;42705;50.326;18.772;2023-02-28T04:58:40;23.60;;;11.30;;
56824;SDS011;42705;50.326;18.772;2023-02-28T05:04:03;27.20;;;11.60;;
56824;SDS011;42705;50.326;18.772;2023-02-28T05:09:26;37.20;;;14.80;;
56824;SDS011;42705;50.326;18.772;2023-02-28T05:14:48;23.50;;;11.20;;
56824;SDS011;42705;50.326;18.772;2023-02-28T05:20:10;34.80;;;17.00;;
56824;SDS011;42705;50.326;18.772;2023-02-28T05:25:32;29.70;;;13.30;;
56824;SDS011;42705;50.326;18.772;2023-02-28T05:30:54;27.90;;;13.40;;
56824;SDS011;42705;50.326;18.772;2023-02-28T05:36:16;27.10;;;11.90;;
56824;SDS011;42705;50.326;18.772;2023-02-28T05:41:39;28.90;;;14.80;;
56824;SDS011;42705;50.326;18.772;2023-02-28T05:47:02;27.80;;;12.30;;
56824;SDS011;42705;50.326;18.772;2023-02-28T05:52:24;26.30;;;12.90;;
56824;SDS011;42705;50.326;18.772;2023-02-28T05:57:45;24.30;;;12.30;;
56824;SDS011;42705;50.326;18.772;2023-02-28T06:03:07;23.80;;;12.10;;
56824;SDS011;42705;50.326;18.772;2023-02-28T06:08:29;23.70;;;11.30;;
56824;SDS011;42705;50.326;18.772;2023-02-28T06:13:52;23.30;;;10.70;;
56824;SDS011;42705;50.326;18.772;2023-02-28T06:19:18;26.80;;;12.10;;
56824;SDS011;42705;50.326;18.772;2023-02-28T06:24:40;24.70;;;11.80;;
56824;SDS011;42705;50.326;18.772;2023-02-28T06:30:02;29.20;;;13.30;;
56824;SDS011;42705;50.326;18.772;2023-02-28T06:35:25;28.90;;;12.90;;
56824;SDS011;42705;50.326;18.772;2023-02-28T06:46:16;22.40;;;10.00;;
56824;SDS011;42705;50.326;18.772;2023-02-28T06:51:40;21.60;;;9.90;;
56824;SDS011;42705;50.326;18.772;2023-02-28T06:57:06;26.90;;;12.00;;
56824;SDS011;42705;50.326;18.772;2023-02-28T07:02:28;25.60;;;11.30;;
56824;SDS011;42705;50.326;18.772;2023-02-28T07:07:50;26.50;;;11.40;;
56824;SDS011;42705;50.326;18.772;2023-02-28T07:13:14;22.90;;;10.90;;
56824;SDS011;42705;50.326;18.772;2023-02-28T07:18:36;27.60;;;11.90;;
56824;SDS011;42705;50.326;18.772;2023-02-28T07:23:58;25.50;;;11.80;;
56824;SDS011;42705;50.326;18.772;2023-02-28T07:29:20;25.60;;;10.80;;
56824;SDS011;42705;50.326;18.772;2023-02-28T07:34:42;24.30;;;11.10;;
56824;SDS011;42705;50.326;18.772;2023-02-28T07:40:06;22.00;;;10.40;;
56824;SDS011;42705;50.326;18.772;2023-02-28T07:45:35;33.50;;;14.70;;
56824;SDS011;42705;50.326;18.772;2023-02-28T07:50:57;36.10;;;15.20;;
56824;SDS011;42705;50.326;18.772;2023-02-28T07:56:20;36.40;;;16.30;;
56824;SDS011;42705;50.326;18.772;2023-02-28T08:01:42;32.10;;;15.20;;
56824;SDS011;42705;50.326;18.772;2023-02-28T08:12:27;32.10;;;14.80;;
56824;SDS011;42705;50.326;18.772;2023-02-28T08:17:49;29.50;;;13.90;;
56824;SDS011;42705;50.326;18.772;2023-02-28T08:23:11;27.30;;;13.60;;
56824;SDS011;42705;50.326;18.772;2023-02-28T08:28:33;28.00;;;12.70;;
56824;SDS011;42705;50.326;18.772;2023-02-28T08:33:55;23.80;;;11.90;;
56824;SDS011;42705;50.326;18.772;2023-02-28T08:39:20;25.80;;;11.90;;
56824;SDS011;42705;50.326;18.772;2023-02-28T08:44:42;24.40;;;12.60;;
56824;SDS011;42705;50.326;18.772;2023-02-28T08:50:04;26.20;;;12.00;;
56824;SDS011;42705;50.326;18.772;2023-02-28T08:55:26;27.70;;;12.80;;
56824;SDS011;42705;50.326;18.772;2023-02-28T09:00:48;26.90;;;13.10;;
56824;SDS011;42705;50.326;18.772;2023-02-28T09:06:10;32.00;;;14.00;;
56824;SDS011;42705;50.326;18.772;2023-02-28T09:11:36;26.50;;;13.90;;
56824;SDS011;42705;50.326;18.772;2023-02-28T09:16:58;21.40;;;10.50;;
56824;SDS011;42705;50.326;18.772;2023-02-28T09:22:20;18.70;;;8.10;;
56824;SDS011;42705;50.326;18.772;2023-02-28T09:27:43;23.60;;;9.80;;
56824;SDS011;42705;50.326;18.772;2023-02-28T09:33:04;16.90;;;8.40;;
56824;SDS011;42705;50.326;18.772;2023-02-28T09:38:27;20.50;;;8.80;;
56824;SDS011;42705;50.326;18.772;2023-02-28T09:43:51;22.90;;;9.60;;
56824;SDS011;42705;50.326;18.772;2023-02-28T09:49:16;21.90;;;10.60;;
56824;SDS011;42705;50.326;18.772;2023-02-28T09:54:41;26.10;;;11.00;;
56824;SDS011;42705;50.326;18.772;2023-02-28T10:11:12;24.50;;;12.60;;
56824;SDS011;42705;50.326;18.772;2023-02-28T10:23:09;25.00;;;13.00;;
56824;SDS011;42705;50.326;18.772;2023-02-28T10:28:23;28.90;;;14.40;;
56824;SDS011;42705;50.326;18.772;2023-02-28T10:33:47;27.00;;;13.70;;
56824;SDS011;42705;50.326;18.772;2023-02-28T10:45:11;28.30;;;14.30;;
56824;SDS011;42705;50.326;18.772;2023-02-28T10:56:20;26.90;;;13.00;;
56824;SDS011;42705;50.326;18.772;2023-02-28T11:01:46;20.60;;;11.10;;
56824;SDS011;42705;50.326;18.772;2023-02-28T11:07:22;24.00;;;12.20;;
56824;SDS011;42705;50.326;18.772;2023-02-28T11:12:46;22.00;;;13.20;;
56824;SDS011;42705;50.326;18.772;2023-02-28T11:23:35;23.20;;;13.80;;
56824;SDS011;42705;50.326;18.772;2023-02-28T11:29:12;22.60;;;12.00;;
56824;SDS011;42705;50.326;18.772;2023-02-28T11:34:42;24.50;;;14.30;;
56824;SDS011;42705;50.326;18.772;2023-02-28T11:40:28;21.10;;;12.90;;
56824;SDS011;42705;50.326;18.772;2023-02-28T11:52:02;21.00;;;10.90;;
56824;SDS011;42705;50.326;18.772;2023-02-28T12:08:42;17.80;;;10.90;;
56824;SDS011;42705;50.326;18.772;2023-02-28T12:14:19;17.90;;;10.70;;
56824;SDS011;42705;50.326;18.772;2023-02-28T12:20:04;16.60;;;10.20;;
56824;SDS011;42705;50.326;18.772;2023-02-28T12:25:55;17.50;;;11.10;;
56824;SDS011;42705;50.326;18.772;2023-02-28T12:31:31;18.40;;;11.40;;
56824;SDS011;42705;50.326;18.772;2023-02-28T12:36:58;17.80;;;10.50;;
56824;SDS011;42705;50.326;18.772;2023-02-28T12:42:28;14.50;;;10.30;;
56824;SDS011;42705;50.326;18.772;2023-02-28T12:48:04;10.90;;;8.70;;
56824;SDS011;42705;50.326;18.772;2023-02-28T12:53:41;11.20;;;9.50;;
56824;SDS011;42705;50.326;18.772;2023-02-28T13:10:51;11.40;;;10.20;;
56824;SDS011;42705;50.326;18.772;2023-02-28T13:16:16;11.20;;;9.40;;
56824;SDS011;42705;50.326;18.772;2023-02-28T13:21:42;11.20;;;9.40;;
56824;SDS011;42705;50.326;18.772;2023-02-28T13:32:30;11.10;;;8.80;;
56824;SDS011;42705;50.326;18.772;2023-02-28T13:38:01;12.00;;;8.90;;
56824;SDS011;42705;50.326;18.772;2023-02-28T14:11:53;11.00;;;9.50;;
56824;SDS011;42705;50.326;18.772;2023-02-28T14:17:16;15.50;;;10.30;;
56824;SDS011;42705;50.326;18.772;2023-02-28T14:39:33;13.40;;;11.30;;
56824;SDS011;42705;50.326;18.772;2023-02-28T14:44:56;12.90;;;10.20;;
56824;SDS011;42705;50.326;18.772;2023-02-28T14:50:22;13.20;;;10.30;;
56824;SDS011;42705;50.326;18.772;2023-02-28T14:55:56;16.00;;;11.80;;
56824;SDS011;42705;50.326;18.772;2023-02-28T15:01:19;14.60;;;12.00;;
56824;SDS011;42705;50.326;18.772;2023-02-28T15:06:43;19.50;;;15.20;;
56824;SDS011;42705;50.326;18.772;2023-02-28T15:12:05;16.70;;;12.90;;
56824;SDS011;42705;50.326;18.772;2023-02-28T15:17:28;17.00;;;12.20;;
56824;SDS011;42705;50.326;18.772;2023-02-28T15:22:51;16.10;;;11.70;;
56824;SDS011;42705;50.326;18.772;2023-02-28T15:28:18;19.60;;;13.20;;
56824;SDS011;42705;50.326;18.772;2023-02-28T15:33:51;22.00;;;13.80;;
56824;SDS011;42705;50.326;18.772;2023-02-28T15:39:21;18.40;;;12.70;;
56824;SDS011;42705;50.326;18.772;2023-02-28T15:44:45;20.60;;;14.00;;
56824;SDS011;42705;50.326;18.772;2023-02-28T15:50:10;18.70;;;13.60;;
56824;SDS011;42705;50.326;18.772;2023-02-28T15:55:35;25.30;;;16.40;;
56824;SDS011;42705;50.326;18.772;2023-02-28T16:01:16;31.50;;;19.30;;
56824;SDS011;42705;50.326;18.772;2023-02-28T16:06:42;27.50;;;16.40;;
56824;SDS011;42705;50.326;18.772;2023-02-28T16:12:08;28.10;;;16.60;;
56824;SDS011;42705;50.326;18.772;2023-02-28T16:17:35;31.50;;;16.60;;
56824;SDS011;42705;50.326;18.772;2023-02-28T16:23:00;43.60;;;21.50;;
56824;SDS011;42705;50.326;18.772;2023-02-28T16:28:25;45.40;;;24.30;;
56824;SDS011;42705;50.326;18.772;2023-02-28T16:33:52;49.10;;;24.30;;
56824;SDS011;42705;50.326;18.772;2023-02-28T16:39:14;55.80;;;27.10;;
56824;SDS011;42705;50.326;18.772;2023-02-28T16:44:36;72.40;;;33.60;;
56824;SDS011;42705;50.326;18.772;2023-02-28T16:49:58;86.30;;;39.00;;
56824;SDS011;42705;50.326;18.772;2023-02-28T16:55:21;89.50;;;40.00;;
56824;SDS011;42705;50.326;18.772;2023-02-28T17:00:45;111.40;;;47.60;;
56824;SDS011;42705;50.326;18.772;2023-02-28T17:06:24;120.80;;;50.90;;
56824;SDS011;42705;50.326;18.772;2023-02-28T17:11:49;143.90;;;57.40;;
56824;SDS011;42705;50.326;18.772;2023-02-28T17:17:15;178.50;;;67.10;;
56824;SDS011;42705;50.326;18.772;2023-02-28T17:22:41;201.80;;;72.20;;
56824;SDS011;42705;50.326;18.772;2023-02-28T17:28:03;180.90;;;66.40;;
56824;SDS011;42705;50.326;18.772;2023-02-28T17:33:25;152.10;;;57.80;;
56824;SDS011;42705;50.326;18.772;2023-02-28T17:38:48;103.80;;;43.50;;
56824;SDS011;42705;50.326;18.772;2023-02-28T17:44:10;85.50;;;39.00;;
56824;SDS011;42705;50.326;18.772;2023-02-28T17:49:33;75.90;;;35.30;;
56824;SDS011;42705;50.326;18.772;2023-02-28T18:00:18;62.60;;;27.40;;
56824;SDS011;42705;50.326;18.772;2023-02-28T18:05:41;50.20;;;25.20;;
56824;SDS011;42705;50.326;18.772;2023-02-28T18:11:04;56.10;;;28.00;;
56824;SDS011;42705;50.326;18.772;2023-02-28T18:16:26;63.60;;;29.90;;
56824;SDS011;42705;50.326;18.772;2023-02-28T18:21:51;64.70;;;30.00;;
56824;SDS011;42705;50.326;18.772;2023-02-28T18:27:14;67.50;;;32.70;;
56824;SDS011;42705;50.326;18.772;2023-02-28T18:32:36;74.70;;;32.80;;
56824;SDS011;42705;50.326;18.772;2023-02-28T18:43:50;73.90;;;32.30;;
56824;SDS011;42705;50.326;18.772;2023-02-28T18:49:12;78.00;;;35.50;;
56824;SDS011;42705;50.326;18.772;2023-02-28T18:54:34;87.80;;;38.10;;
56824;SDS011;42705;50.326;18.772;2023-02-28T18:59:56;97.10;;;43.00;;
56824;SDS011;42705;50.326;18.772;2023-02-28T19:05:19;104.20;;;44.00;;
56824;SDS011;42705;50.326;18.772;2023-02-28T19:10:41;104.00;;;46.50;;
56824;SDS011;42705;50.326;18.772;2023-02-28T19:16:05;98.80;;;43.00;;
56824;SDS011;42705;50.326;18.772;2023-02-28T19:21:28;98.80;;;43.10;;
56824;SDS011;42705;50.326;18.772;2023-02-28T19:26:50;97.40;;;43.00;;
56824;SDS011;42705;50.326;18.772;2023-02-28T19:32:12;89.20;;;39.60;;
56824;SDS011;42705;50.326;18.772;2023-02-28T19:37:38;90.20;;;39.80;;
56824;SDS011;42705;50.326;18.772;2023-02-28T19:43:01;93.10;;;39.40;;
56824;SDS011;42705;50.326;18.772;2023-02-28T19:48:23;82.20;;;37.30;;
56824;SDS011;42705;50.326;18.772;2023-02-28T19:53:47;97.70;;;42.10;;
56824;SDS011;42705;50.326;18.772;2023-02-28T19:59:09;127.40;;;51.90;;
56824;SDS011;42705;50.326;18.772;2023-02-28T20:04:31;188.10;;;68.30;;
56824;SDS011;42705;50.326;18.772;2023-02-28T20:09:53;173.30;;;66.50;;
56824;SDS011;42705;50.326;18.772;2023-02-28T20:15:15;271.10;;;96.90;;
56824;SDS011;42705;50.326;18.772;2023-02-28T20:20:37;279.80;;;105.10;;
56824;SDS011;42705;50.326;18.772;2023-02-28T20:26:02;300.00;;;101.30;;
56824;SDS011;42705;50.326;18.772;2023-02-28T20:31:25;280.90;;;104.60;;
56824;SDS011;42705;50.326;18.772;2023-02-28T20:36:47;244.00;;;90.00;;
56824;SDS011;42705;50.326;18.772;2023-02-28T20:42:10;188.00;;;69.10;;
56824;SDS011;42705;50.326;18.772;2023-02-28T20:47:32;139.40;;;56.40;;
56824;SDS011;42705;50.326;18.772;2023-02-28T20:52:54;111.40;;;46.90;;
56824;SDS011;42705;50.326;18.772;2023-02-28T20:58:15;90.60;;;41.70;;
56824;SDS011;42705;50.326;18.772;2023-02-28T21:03:38;93.70;;;40.70;;
56824;SDS011;42705;50.326;18.772;2023-02-28T21:09:02;97.10;;;43.80;;
56824;SDS011;42705;50.326;18.772;2023-02-28T21:14:29;94.20;;;39.40;;
56824;SDS011;42705;50.326;18.772;2023-02-28T21:19:52;92.90;;;40.30;;
56824;SDS011;42705;50.326;18.772;2023-02-28T21:25:14;94.10;;;40.60;;
56824;SDS011;42705;50.326;18.772;2023-02-28T21:30:36;104.10;;;43.00;;
56824;SDS011;42705;50.326;18.772;2023-02-28T21:36:02;99.50;;;45.60;;
56824;SDS011;42705;50.326;18.772;2023-02-28T21:41:27;100.30;;;44.00;;
56824;SDS011;42705;50.326;18.772;2023-02-28T21:46:49;102.80;;;42.60;;
56824;SDS011;42705;50.326;18.772;2023-02-28T21:52:17;89.10;;;38.10;;
56824;SDS011;42705;50.326;18.772;2023-02-28T21:57:42;80.40;;;34.60;;
56824;SDS011;42705;50.326;18.772;2023-02-28T22:03:06;84.60;;;36.50;;
56824;SDS011;42705;50.326;18.772;2023-02-28T22:08:28;102.60;;;42.80;;
56824;SDS011;42705;50.326;18.772;2023-02-28T22:13:51;109.70;;;42.60;;
56824;SDS011;42705;50.326;18.772;2023-02-28T22:19:16;124.30;;;48.50;;
56824;SDS011;42705;50.326;18.772;2023-02-28T22:24:38;138.70;;;52.80;;
56824;SDS011;42705;50.326;18.772;2023-02-28T22:30:00;128.20;;;49.70;;
56824;SDS011;42705;50.326;18.772;2023-02-28T22:35:22;141.50;;;54.40;;
56824;SDS011;42705;50.326;18.772;2023-02-28T22:40:43;143.90;;;55.50;;
56824;SDS011;42705;50.326;18.772;2023-02-28T22:46:07;95.70;;;34.90;;
56824;SDS011;42705;50.326;18.772;2023-02-28T22:51:31;178.90;;;65.80;;
56824;SDS011;42705;50.326;18.772;2023-02-28T22:56:53;176.30;;;62.80;;
56824;SDS011;42705;50.326;18.772;2023-02-28T23:02:15;144.10;;;54.70;;
56824;SDS011;42705;50.326;18.772;2023-02-28T23:07:37;133.90;;;49.40;;
56824;SDS011;42705;50.326;18.772;2023-02-28T23:13:02;101.00;;;39.80;;
56824;SDS011;42705;50.326;18.772;2023-02-28T23:18:23;101.90;;;41.20;;
56824;SDS011;42705;50.326;18.772;2023-02-28T23:23:45;94.80;;;39.20;;
56824;SDS011;42705;50.326;18.772;2023-02-28T23:29:07;103.30;;;40.70;;
56824;SDS011;42705;50.326;18.772;2023-02-28T23:34:29;122.60;;;45.90;;
56824;SDS011;42705;50.326;18.772;2023-02-28T23:39:52;118.60;;;46.00;;
56824;SDS011;42705;50.326;18.772;2023-02-28T23:45:14;104.40;;;44.10;;
56824;SDS011;42705;50.326;18.772;2023-02-28T23:50:36;112.00;;;42.90;;
56824;SDS011;42705;50.326;18.772;2023-02-28T23:55:59;97.20;;;36.90;;
